createdAt,value
2022-11-27T00:00:21.429Z,51.80
2022-11-27T00:05:45.021Z,47.03
2022-11-27T00:10:56.586Z,45.83
2022-11-27T00:16:00.825Z,47.57
2022-11-27T00:21:28.380Z,42.47
2022-11-27T00:26:38.475Z,46.93
2022-11-27T00:31:49.114Z,46.03
2022-11-27T00:37:08.135Z,50.27
2022-11-27T00:42:24.394Z,46.60
2022-11-27T00:53:10.580Z,55.83
2022-11-27T00:58:26.845Z,53.27
2022-11-27T01:03:43.606Z,48.93
2022-11-27T01:08:48.883Z,55.57
2022-11-27T01:14:08.839Z,45.83
2022-11-27T01:19:24.293Z,44.43
2022-11-27T01:24:28.160Z,36.97
2022-11-27T01:29:30.864Z,35.00
2022-11-27T01:34:36.855Z,37.63
2022-11-27T01:39:39.701Z,35.70
2022-11-27T01:44:51.508Z,33.53
2022-11-27T01:49:59.412Z,31.00
2022-11-27T01:55:10.915Z,37.10
2022-11-27T02:00:15.574Z,37.07
2022-11-27T02:05:39.258Z,29.80
2022-11-27T02:10:53.909Z,32.23
2022-11-27T02:16:29.936Z,33.93
2022-11-27T02:22:06.970Z,37.03
2022-11-27T02:27:51.618Z,38.10
2022-11-27T02:33:09.334Z,33.87
2022-11-27T02:38:31.981Z,36.10
2022-11-27T02:43:54.547Z,35.20
2022-11-27T02:49:13.267Z,34.00
2022-11-27T02:54:27.882Z,38.17
2022-11-27T02:59:35.893Z,38.97
2022-11-27T03:05:00.604Z,28.53
2022-11-27T03:10:14.408Z,29.77
2022-11-27T03:15:17.895Z,27.33
2022-11-27T03:20:29.496Z,25.20
2022-11-27T03:25:33.635Z,27.80
2022-11-27T03:30:37.467Z,27.23
2022-11-27T03:35:40.263Z,21.97
2022-11-27T03:41:04.365Z,26.53
2022-11-27T03:46:34.821Z,23.67
2022-11-27T03:52:27.452Z,22.83
2022-11-27T03:58:11.906Z,21.87
2022-11-27T04:03:44.247Z,22.33
2022-11-27T04:08:47.844Z,21.40
2022-11-27T04:14:00.297Z,21.00
2022-11-27T04:19:10.640Z,19.13
2022-11-27T04:24:21.168Z,22.33
2022-11-27T04:29:28.636Z,19.00
2022-11-27T04:34:31.910Z,20.73
2022-11-27T04:39:34.736Z,25.90
2022-11-27T04:44:40.885Z,23.87
2022-11-27T04:49:43.915Z,21.27
2022-11-27T04:54:49.795Z,17.83
2022-11-27T04:59:52.525Z,22.77
2022-11-27T05:05:14.159Z,22.93
2022-11-27T05:10:29.130Z,22.23
2022-11-27T05:21:30.879Z,19.60
2022-11-27T05:27:02.466Z,21.30
2022-11-27T05:32:16.257Z,15.90
2022-11-27T05:37:29.267Z,18.70
2022-11-27T05:43:09.172Z,17.93
2022-11-27T05:48:28.508Z,19.57
2022-11-27T05:53:51.397Z,22.47
2022-11-27T05:59:03.814Z,18.80
2022-11-27T06:04:42.850Z,21.93
2022-11-27T06:09:48.789Z,15.87
2022-11-27T06:14:51.579Z,18.37
2022-11-27T06:19:54.430Z,16.87
2022-11-27T06:25:00.127Z,24.17
2022-11-27T06:30:06.979Z,21.37
2022-11-27T06:35:16.737Z,30.67
2022-11-27T06:40:24.649Z,20.93
2022-11-27T06:45:28.943Z,20.23
2022-11-27T06:50:31.885Z,21.30
2022-11-27T06:55:34.632Z,23.00
2022-11-27T07:00:40.000Z,20.30
2022-11-27T07:05:57.122Z,20.93
2022-11-27T07:11:26.906Z,20.37
2022-11-27T07:16:46.778Z,24.13
2022-11-27T07:22:12.890Z,25.03
2022-11-27T07:27:40.298Z,22.67
2022-11-27T07:32:59.640Z,20.87
2022-11-27T07:38:02.875Z,18.60
2022-11-27T07:43:16.582Z,23.43
2022-11-27T07:48:36.849Z,23.20
2022-11-27T07:54:01.555Z,22.37
2022-11-27T07:59:13.484Z,24.10
2022-11-27T08:10:28.362Z,20.33
2022-11-27T08:15:34.745Z,21.87
2022-11-27T08:20:37.656Z,23.70
2022-11-27T08:25:43.183Z,21.83
2022-11-27T08:37:01.057Z,18.97
2022-11-27T08:42:19.029Z,22.90
2022-11-27T08:47:45.664Z,20.07
2022-11-27T08:52:56.867Z,18.30
2022-11-27T08:58:15.965Z,18.47
2022-11-27T09:03:41.531Z,21.13
2022-11-27T09:08:50.222Z,19.37
2022-11-27T09:13:59.315Z,19.57
2022-11-27T09:19:12.553Z,17.00
2022-11-27T09:24:19.365Z,14.67
2022-11-27T09:29:22.542Z,14.67
2022-11-27T09:34:25.346Z,13.93
2022-11-27T09:39:33.402Z,18.43
2022-11-27T09:44:53.614Z,16.57
2022-11-27T09:50:05.109Z,26.30
2022-11-27T09:55:31.892Z,19.40
2022-11-27T10:00:34.920Z,21.53
2022-11-27T10:06:34.524Z,13.23
2022-11-27T10:12:16.866Z,16.03
2022-11-27T10:17:56.299Z,20.83
2022-11-27T10:23:26.260Z,17.73
2022-11-27T10:29:10.983Z,18.23
2022-11-27T10:34:38.583Z,19.07
2022-11-27T10:39:48.539Z,19.10
2022-11-27T10:45:27.392Z,12.83
2022-11-27T10:50:30.199Z,13.30
2022-11-27T10:56:31.563Z,14.93
2022-11-27T11:02:08.191Z,14.37
2022-11-27T11:07:42.444Z,14.33
2022-11-27T11:13:15.944Z,15.67
2022-11-27T11:18:43.590Z,12.87
2022-11-27T11:24:09.885Z,13.47
2022-11-27T11:29:46.316Z,14.13
2022-11-27T11:35:35.054Z,14.27
2022-11-27T11:40:38.396Z,22.67
2022-11-27T11:46:24.523Z,13.10
2022-11-27T11:52:02.351Z,14.57
2022-11-27T11:57:56.769Z,18.50
2022-11-27T12:03:22.903Z,14.73
2022-11-27T12:09:09.538Z,16.73
2022-11-27T12:14:37.120Z,15.47
2022-11-27T12:20:13.218Z,15.10
2022-11-27T12:25:34.882Z,20.47
2022-11-27T12:30:45.769Z,19.93
2022-11-27T12:36:25.901Z,17.77
2022-11-27T12:42:23.845Z,15.57
2022-11-27T12:47:57.358Z,15.67
2022-11-27T12:53:31.813Z,13.37
2022-11-27T12:58:54.868Z,15.63
2022-11-27T13:04:34.164Z,17.53
2022-11-27T13:10:09.735Z,14.10
2022-11-27T13:15:35.326Z,10.57
2022-11-27T13:20:42.003Z,13.10
2022-11-27T13:26:09.699Z,13.67
2022-11-27T13:32:12.454Z,11.03
2022-11-27T13:37:51.581Z,11.37
2022-11-27T13:43:31.056Z,12.50
2022-11-27T13:48:58.395Z,8.40
2022-11-27T13:54:27.629Z,9.73
2022-11-27T13:59:39.492Z,9.77
2022-11-27T14:05:14.386Z,9.53
2022-11-27T14:10:33.961Z,10.97
2022-11-27T14:15:44.178Z,11.30
2022-11-27T14:21:33.038Z,9.67
2022-11-27T14:26:57.494Z,11.03
2022-11-27T14:32:38.056Z,8.03
2022-11-27T14:38:02.038Z,10.00
2022-11-27T14:43:27.523Z,12.23
2022-11-27T14:49:05.193Z,11.40
2022-11-27T14:54:23.896Z,20.43
2022-11-27T14:59:27.087Z,10.43
2022-11-27T15:10:02.637Z,10.67
2022-11-27T15:15:18.236Z,21.83
2022-11-27T15:20:57.545Z,18.20
2022-11-27T15:26:29.684Z,11.70
2022-11-27T15:31:52.920Z,13.37
2022-11-27T15:37:56.587Z,20.70
2022-11-27T15:43:01.354Z,16.40
2022-11-27T15:48:30.778Z,16.40
2022-11-27T15:53:53.407Z,17.23
2022-11-27T15:59:03.436Z,15.03
2022-11-27T16:04:33.081Z,16.43
2022-11-27T16:09:40.277Z,15.33
2022-11-27T16:14:43.452Z,15.00
2022-11-27T16:19:51.393Z,18.53
2022-11-27T16:24:54.414Z,16.03
2022-11-27T16:29:57.128Z,15.80
2022-11-27T16:35:00.014Z,18.37
2022-11-27T16:40:05.595Z,15.97
2022-11-27T16:45:09.601Z,26.47
2022-11-27T16:50:13.337Z,18.67
2022-11-27T16:55:17.793Z,16.10
2022-11-27T17:00:21.284Z,21.57
2022-11-27T17:05:41.636Z,22.77
2022-11-27T17:10:51.335Z,18.77
2022-11-27T17:16:20.019Z,18.87
2022-11-27T17:22:00.189Z,21.20
2022-11-27T17:27:23.379Z,20.30
2022-11-27T17:32:38.435Z,22.40
2022-11-27T17:37:53.082Z,21.33
2022-11-27T17:43:04.733Z,23.37
2022-11-27T17:48:20.491Z,20.33
2022-11-27T17:53:52.359Z,19.90
2022-11-27T17:59:07.135Z,21.63
2022-11-27T18:04:18.523Z,15.83
2022-11-27T18:09:28.656Z,20.73
2022-11-27T18:14:31.915Z,17.07
2022-11-27T18:19:34.695Z,19.30
2022-11-27T18:24:37.616Z,16.20
2022-11-27T18:29:47.310Z,15.87
2022-11-27T18:34:54.497Z,15.30
2022-11-27T18:39:57.311Z,16.60
2022-11-27T18:45:00.185Z,16.87
2022-11-27T18:50:03.728Z,17.10
2022-11-27T18:55:06.642Z,16.40
2022-11-27T19:00:10.046Z,17.23
2022-11-27T19:05:33.386Z,14.00
2022-11-27T19:10:37.150Z,17.97
2022-11-27T19:15:41.466Z,19.87
2022-11-27T19:20:44.271Z,18.23
2022-11-27T19:25:59.761Z,14.73
2022-11-27T19:31:22.996Z,20.57
2022-11-27T19:36:46.063Z,18.70
2022-11-27T19:42:14.762Z,19.30
2022-11-27T19:47:36.831Z,18.57
2022-11-27T19:58:23.037Z,18.00
2022-11-27T20:03:52.089Z,18.73
2022-11-27T20:09:23.766Z,18.20
2022-11-27T20:14:44.442Z,22.17
2022-11-27T20:20:00.565Z,17.63
2022-11-27T20:25:19.062Z,19.43
2022-11-27T20:30:23.618Z,22.87
2022-11-27T20:35:26.346Z,21.83
2022-11-27T20:40:29.137Z,18.73
2022-11-27T20:45:31.937Z,22.30
2022-11-27T20:50:36.942Z,18.10
2022-11-27T20:55:39.699Z,18.33
2022-11-27T21:00:44.305Z,19.60
2022-11-27T21:11:29.348Z,19.07
2022-11-27T21:17:05.088Z,16.47
2022-11-27T21:22:22.272Z,15.83
2022-11-27T21:27:44.836Z,15.47
2022-11-27T21:32:59.725Z,18.70
2022-11-27T21:38:17.575Z,16.67
2022-11-27T21:43:29.321Z,23.47
2022-11-27T21:48:52.089Z,19.13
2022-11-27T21:54:03.860Z,15.67
2022-11-27T21:59:16.317Z,16.73
2022-11-27T22:04:36.499Z,18.60
2022-11-27T22:09:45.372Z,18.23
2022-11-27T22:14:50.733Z,17.90
2022-11-27T22:19:53.616Z,20.30
2022-11-27T22:24:56.371Z,14.83
2022-11-27T22:29:59.201Z,17.83
2022-11-27T22:35:02.267Z,14.10
2022-11-27T22:40:05.825Z,13.67
2022-11-27T22:45:08.978Z,17.00
2022-11-27T22:50:11.923Z,15.83
2022-11-27T22:55:14.852Z,14.50
2022-11-27T23:00:18.091Z,14.10
2022-11-27T23:05:40.583Z,13.10
2022-11-27T23:10:59.322Z,13.43
2022-11-27T23:16:25.541Z,15.40
2022-11-27T23:21:50.981Z,11.73
2022-11-27T23:27:20.126Z,15.70
2022-11-27T23:32:43.571Z,12.43
2022-11-27T23:37:56.073Z,16.30
2022-11-27T23:43:08.207Z,11.17
2022-11-27T23:48:20.296Z,14.93
2022-11-27T23:53:26.553Z,20.67
2022-11-27T23:58:46.748Z,14.20
